createdAt,value
2022-12-20T00:01:36.040Z,100490.91
2022-12-20T00:04:06.573Z,100490.34
2022-12-20T00:06:35.438Z,100483.22
2022-12-20T00:09:05.469Z,100473.25
2022-12-20T00:11:34.039Z,100481.00
2022-12-20T00:14:02.056Z,100473.41
2022-12-20T00:16:31.783Z,100465.00
2022-12-20T00:19:02.911Z,100467.47
2022-12-20T00:21:32.129Z,100464.16
2022-12-20T00:24:00.349Z,100463.25
2022-12-20T00:26:30.413Z,100452.94
2022-12-20T00:28:59.079Z,100444.66
2022-12-20T00:31:28.866Z,100445.00
2022-12-20T00:34:00.371Z,100442.75
2022-12-20T00:36:30.163Z,100425.38
2022-12-20T00:39:00.318Z,100439.56
2022-12-20T00:41:30.375Z,100434.13
2022-12-20T00:43:58.718Z,100429.41
2022-12-20T00:46:27.162Z,100439.94
2022-12-20T00:48:56.852Z,100437.44
2022-12-20T00:51:28.137Z,100437.91
2022-12-20T00:53:57.050Z,100428.66
2022-12-20T00:56:26.000Z,100427.47
2022-12-20T00:59:00.482Z,100423.81
2022-12-20T01:01:30.797Z,100421.91
2022-12-20T01:03:59.592Z,100435.28
2022-12-20T01:06:29.911Z,100428.53
2022-12-20T01:08:58.683Z,100441.06
2022-12-20T01:11:29.557Z,100426.06
2022-12-20T01:14:01.079Z,100429.38
2022-12-20T01:16:31.675Z,100433.28
2022-12-20T01:18:59.856Z,100419.28
2022-12-20T01:21:29.509Z,100417.97
2022-12-20T01:23:57.944Z,100425.66
2022-12-20T01:26:28.636Z,100417.16
2022-12-20T01:28:58.487Z,100404.97
2022-12-20T01:31:27.474Z,100415.75
2022-12-20T01:33:55.527Z,100426.16
2022-12-20T01:36:26.206Z,100423.44
2022-12-20T01:38:59.814Z,100419.06
2022-12-20T01:41:29.400Z,100420.59
2022-12-20T01:43:59.227Z,100416.34
2022-12-20T01:46:29.431Z,100423.31
2022-12-20T01:49:00.981Z,100418.56
2022-12-20T01:51:32.110Z,100402.47
2022-12-20T01:54:06.162Z,100404.47
2022-12-20T01:56:34.550Z,100401.75
2022-12-20T01:59:03.197Z,100398.19
2022-12-20T02:01:31.224Z,100401.50
2022-12-20T02:03:59.309Z,100404.47
2022-12-20T02:06:28.910Z,100393.91
2022-12-20T02:09:02.293Z,100405.66
2022-12-20T02:11:52.560Z,100397.72
2022-12-20T02:14:33.227Z,100391.44
2022-12-20T02:17:11.359Z,100392.25
2022-12-20T02:20:18.952Z,100398.03
2022-12-20T02:23:02.885Z,100403.16
2022-12-20T02:25:50.574Z,100392.84
2022-12-20T02:28:40.585Z,100383.50
2022-12-20T02:31:15.085Z,100383.88
2022-12-20T02:33:47.962Z,100387.16
2022-12-20T02:36:18.032Z,100400.66
2022-12-20T02:38:47.363Z,100395.22
2022-12-20T02:41:20.436Z,100394.00
2022-12-20T02:44:10.034Z,100387.50
2022-12-20T02:46:43.811Z,100380.38
2022-12-20T02:49:16.373Z,100389.97
2022-12-20T02:51:48.380Z,100376.94
2022-12-20T02:54:17.811Z,100380.75
2022-12-20T02:56:55.763Z,100378.84
2022-12-20T02:59:30.619Z,100379.75
2022-12-20T03:02:00.751Z,100376.34
2022-12-20T03:04:31.349Z,100382.38
2022-12-20T03:07:01.816Z,100361.69
2022-12-20T03:09:32.236Z,100364.72
2022-12-20T03:12:00.546Z,100366.03
2022-12-20T03:14:28.885Z,100356.06
2022-12-20T03:17:00.528Z,100349.13
2022-12-20T03:19:28.690Z,100343.94
2022-12-20T03:21:58.860Z,100347.16
2022-12-20T03:24:27.231Z,100359.25
2022-12-20T03:26:55.985Z,100377.03
2022-12-20T03:29:25.875Z,100345.94
2022-12-20T03:31:54.060Z,100342.84
2022-12-20T03:34:25.180Z,100334.94
2022-12-20T03:36:54.092Z,100344.84
2022-12-20T03:39:22.084Z,100337.81
2022-12-20T03:41:52.277Z,100343.00
2022-12-20T03:44:20.408Z,100345.16
2022-12-20T03:46:48.536Z,100339.69
2022-12-20T03:49:17.417Z,100338.75
2022-12-20T03:51:50.848Z,100328.00
2022-12-20T03:54:19.809Z,100314.72
2022-12-20T03:57:10.176Z,100314.38
2022-12-20T03:59:39.378Z,100325.03
2022-12-20T04:02:10.412Z,100333.22
2022-12-20T04:04:38.519Z,100335.06
2022-12-20T04:07:09.065Z,100327.88
2022-12-20T04:09:39.364Z,100323.25
2022-12-20T04:12:12.430Z,100311.53
2022-12-20T04:14:40.933Z,100319.94
2022-12-20T04:17:08.966Z,100302.78
2022-12-20T04:19:38.154Z,100309.53
2022-12-20T04:22:08.530Z,100303.75
2022-12-20T04:24:48.030Z,100314.06
2022-12-20T04:27:25.190Z,100300.44
2022-12-20T04:29:55.140Z,100316.69
2022-12-20T04:32:27.143Z,100312.88
2022-12-20T04:34:55.003Z,100306.03
2022-12-20T04:37:25.063Z,100307.09
2022-12-20T04:39:55.540Z,100305.69
2022-12-20T04:42:27.235Z,100291.00
2022-12-20T04:44:56.296Z,100297.03
2022-12-20T04:47:30.104Z,100296.44
2022-12-20T04:49:58.619Z,100294.31
2022-12-20T04:52:47.834Z,100297.13
2022-12-20T04:55:17.017Z,100294.91
2022-12-20T04:57:45.673Z,100282.00
2022-12-20T05:00:15.763Z,100278.06
2022-12-20T05:02:47.127Z,100280.13
2022-12-20T05:05:18.617Z,100285.09
2022-12-20T05:07:53.117Z,100272.03
2022-12-20T05:10:21.399Z,100269.22
2022-12-20T05:12:50.435Z,100277.97
2022-12-20T05:15:38.800Z,100293.59
2022-12-20T05:18:07.462Z,100279.72
2022-12-20T05:21:12.524Z,100274.28
2022-12-20T05:24:00.910Z,100275.59
2022-12-20T05:26:32.592Z,100268.28
2022-12-20T05:29:02.070Z,100275.84
2022-12-20T05:31:30.145Z,100281.44
2022-12-20T05:33:58.744Z,100281.28
2022-12-20T05:36:31.053Z,100282.72
2022-12-20T05:39:04.565Z,100272.03
2022-12-20T05:41:34.825Z,100274.66
2022-12-20T05:44:03.701Z,100281.78
2022-12-20T05:46:34.658Z,100287.22
2022-12-20T05:49:06.737Z,100285.56
2022-12-20T05:51:35.437Z,100280.47
2022-12-20T05:54:13.713Z,100286.00
2022-12-20T05:56:56.703Z,100284.13
2022-12-20T05:59:33.146Z,100290.59
2022-12-20T06:02:01.814Z,100279.81
2022-12-20T06:04:30.180Z,100277.69
2022-12-20T06:06:59.590Z,100274.72
2022-12-20T06:09:30.135Z,100280.31
2022-12-20T06:12:10.712Z,100285.16
2022-12-20T06:14:40.524Z,100294.00
2022-12-20T06:17:08.727Z,100296.75
2022-12-20T06:19:37.231Z,100292.94
2022-12-20T06:22:05.253Z,100304.69
2022-12-20T06:25:09.283Z,100301.09
2022-12-20T06:27:40.096Z,100315.31
2022-12-20T06:30:13.431Z,100308.53
2022-12-20T06:32:54.209Z,100323.97
2022-12-20T06:35:22.501Z,100329.19
2022-12-20T06:37:51.900Z,100336.50
2022-12-20T06:40:21.510Z,100338.66
2022-12-20T06:42:50.417Z,100337.34
2022-12-20T06:45:20.746Z,100340.88
2022-12-20T06:47:48.730Z,100334.25
2022-12-20T06:50:16.740Z,100339.69
2022-12-20T06:52:44.764Z,100365.03
2022-12-20T06:55:12.887Z,100393.47
2022-12-20T06:57:44.050Z,100402.63
2022-12-20T07:00:13.581Z,100424.28
2022-12-20T07:02:41.867Z,100416.94
2022-12-20T07:05:10.286Z,100431.38
2022-12-20T07:07:44.632Z,100436.81
2022-12-20T07:10:13.678Z,100453.88
2022-12-20T07:12:47.760Z,100460.25
2022-12-20T07:15:16.629Z,100459.44
2022-12-20T07:17:44.912Z,100454.94
2022-12-20T07:20:14.393Z,100466.13
2022-12-20T07:22:42.808Z,100467.41
2022-12-20T07:25:12.089Z,100477.69
2022-12-20T07:27:40.165Z,100484.69
2022-12-20T07:30:10.773Z,100483.94
2022-12-20T07:32:38.870Z,100493.88
2022-12-20T07:35:07.809Z,100495.75
2022-12-20T07:37:35.831Z,100499.78
2022-12-20T07:40:03.800Z,100507.91
2022-12-20T07:42:36.051Z,100516.53
2022-12-20T07:45:09.313Z,100511.28
2022-12-20T07:47:37.371Z,100513.09
2022-12-20T07:50:06.267Z,100520.03
2022-12-20T07:52:35.571Z,100515.81
2022-12-20T07:55:09.263Z,100517.16
2022-12-20T07:57:40.907Z,100523.88
2022-12-20T08:00:12.055Z,100520.03
2022-12-20T08:02:48.945Z,100519.59
2022-12-20T08:05:18.161Z,100529.31
2022-12-20T08:07:51.052Z,100538.75
2022-12-20T08:10:21.969Z,100538.00
2022-12-20T08:12:50.814Z,100548.25
2022-12-20T08:15:22.584Z,100551.88
2022-12-20T08:17:50.783Z,100556.91
2022-12-20T08:20:18.926Z,100559.66
2022-12-20T08:22:47.013Z,100565.09
2022-12-20T08:25:15.095Z,100567.00
2022-12-20T08:27:43.074Z,100575.34
2022-12-20T08:30:12.572Z,100606.75
2022-12-20T08:32:42.080Z,100608.44
2022-12-20T08:35:10.447Z,100608.19
2022-12-20T08:37:38.441Z,100603.81
2022-12-20T08:40:08.671Z,100620.09
2022-12-20T08:42:36.795Z,100622.00
2022-12-20T08:45:05.552Z,100627.25
2022-12-20T08:47:33.540Z,100626.84
2022-12-20T08:50:03.458Z,100623.53
2022-12-20T08:52:31.470Z,100634.22
2022-12-20T08:55:01.728Z,100631.53
2022-12-20T08:57:30.236Z,100639.56
2022-12-20T08:59:58.170Z,100640.38
2022-12-20T09:02:28.382Z,100644.59
2022-12-20T09:04:56.832Z,100640.88
2022-12-20T09:07:26.264Z,100656.53
2022-12-20T09:09:54.232Z,100658.88
2022-12-20T09:12:22.201Z,100672.44
2022-12-20T09:15:15.068Z,100679.56
2022-12-20T09:17:43.052Z,100676.84
2022-12-20T09:20:11.537Z,100690.63
2022-12-20T09:22:40.922Z,100690.22
2022-12-20T09:25:09.843Z,100695.06
2022-12-20T09:27:38.117Z,100702.78
2022-12-20T09:30:07.003Z,100704.06
2022-12-20T09:32:35.341Z,100708.84
2022-12-20T09:35:03.404Z,100709.03
2022-12-20T09:37:31.691Z,100712.63
2022-12-20T09:40:01.169Z,100719.50
2022-12-20T09:42:30.823Z,100721.16
2022-12-20T09:45:07.324Z,100717.22
2022-12-20T09:47:36.941Z,100720.97
2022-12-20T09:50:07.603Z,100725.34
2022-12-20T09:53:16.424Z,100719.09
2022-12-20T09:55:54.902Z,100722.44
2022-12-20T09:58:36.780Z,100733.47
2022-12-20T10:01:23.057Z,100741.19
2022-12-20T10:03:53.717Z,100743.91
2022-12-20T10:06:33.871Z,100741.81
2022-12-20T10:09:05.117Z,100749.75
2022-12-20T10:11:56.905Z,100754.16
2022-12-20T10:14:43.453Z,100773.31
2022-12-20T10:17:15.439Z,100758.94
2022-12-20T10:20:04.253Z,100758.06
2022-12-20T10:22:41.898Z,100756.03
2022-12-20T10:25:17.471Z,100764.75
2022-12-20T10:27:48.864Z,100745.59
2022-12-20T10:30:19.865Z,100743.28
2022-12-20T10:32:48.495Z,100750.38
2022-12-20T10:35:26.342Z,100746.41
2022-12-20T10:38:07.652Z,100741.19
2022-12-20T10:41:18.875Z,100742.88
2022-12-20T10:43:29.280Z,100742.88
2022-12-20T10:45:59.941Z,100745.38
2022-12-20T10:48:31.781Z,100759.13
2022-12-20T10:51:04.610Z,100744.75
2022-12-20T10:53:33.341Z,100749.31
2022-12-20T10:56:18.367Z,100751.59
2022-12-20T10:58:56.371Z,100744.75
2022-12-20T11:01:28.317Z,100746.19
2022-12-20T11:03:59.615Z,100750.94
2022-12-20T11:06:29.407Z,100744.31
2022-12-20T11:09:25.955Z,100740.53
2022-12-20T11:12:03.550Z,100747.84
2022-12-20T11:15:10.457Z,100738.25
2022-12-20T11:17:42.886Z,100742.66
2022-12-20T11:20:30.593Z,100749.28
2022-12-20T11:23:10.631Z,100753.25
2022-12-20T11:25:55.577Z,100754.91
2022-12-20T11:28:46.796Z,100756.78
2022-12-20T11:31:20.266Z,100758.84
2022-12-20T11:34:04.512Z,100775.72
2022-12-20T11:36:47.199Z,100776.56
2022-12-20T11:39:24.832Z,100780.72
2022-12-20T11:42:05.298Z,100779.25
2022-12-20T11:44:57.962Z,100766.53
2022-12-20T11:47:49.187Z,100772.78
2022-12-20T11:50:33.419Z,100772.53
2022-12-20T11:53:06.892Z,100765.47
2022-12-20T11:56:03.258Z,100760.47
2022-12-20T11:58:37.449Z,100766.69
2022-12-20T12:01:12.933Z,100761.88
2022-12-20T12:03:45.989Z,100765.00
2022-12-20T12:06:22.381Z,100759.56
2022-12-20T12:08:54.576Z,100763.13
2022-12-20T12:12:04.645Z,100763.91
2022-12-20T12:14:17.887Z,100765.16
2022-12-20T12:16:53.929Z,100764.09
2022-12-20T12:19:27.594Z,100755.53
2022-12-20T12:22:03.153Z,100751.56
2022-12-20T12:24:36.106Z,100750.13
2022-12-20T12:27:04.153Z,100747.41
2022-12-20T12:29:35.502Z,100738.63
2022-12-20T12:32:09.859Z,100738.84
2022-12-20T12:34:53.807Z,100739.44
2022-12-20T12:37:41.250Z,100749.69
2022-12-20T12:40:52.578Z,100746.50
2022-12-20T12:43:46.786Z,100746.72
2022-12-20T12:46:18.115Z,100735.88
2022-12-20T12:48:51.993Z,100732.50
2022-12-20T12:51:29.133Z,100735.88
2022-12-20T12:54:47.173Z,100732.91
2022-12-20T12:57:16.760Z,100739.63
2022-12-20T12:59:48.385Z,100729.59
2022-12-20T13:02:35.329Z,100738.50
2022-12-20T13:05:32.502Z,100742.28
2022-12-20T13:08:02.055Z,100738.72
2022-12-20T13:10:59.871Z,100751.88
2022-12-20T13:13:28.329Z,100745.38
2022-12-20T13:16:13.162Z,100751.84
2022-12-20T13:19:14.008Z,100754.97
2022-12-20T13:21:44.858Z,100756.63
2022-12-20T13:24:57.569Z,100756.63
2022-12-20T13:27:35.903Z,100751.97
2022-12-20T13:30:26.275Z,100753.06
2022-12-20T13:33:03.774Z,100754.06
2022-12-20T13:35:42.297Z,100736.53
2022-12-20T13:38:49.906Z,100742.38
2022-12-20T13:41:32.585Z,100749.44
2022-12-20T13:44:19.620Z,100738.41
2022-12-20T13:46:51.850Z,100740.69
2022-12-20T13:49:26.942Z,100741.75
2022-12-20T13:52:23.171Z,100744.03
2022-12-20T13:54:54.784Z,100744.25
2022-12-20T13:57:29.381Z,100741.94
2022-12-20T14:00:06.872Z,100738.59
2022-12-20T14:02:41.623Z,100745.28
2022-12-20T14:05:18.483Z,100744.47
2022-12-20T14:07:49.062Z,100755.31
2022-12-20T14:10:21.887Z,100757.66
2022-12-20T14:13:20.822Z,100753.66
2022-12-20T14:15:51.298Z,100750.78
2022-12-20T14:18:21.768Z,100752.88
2022-12-20T14:20:52.580Z,100758.91
2022-12-20T14:23:23.579Z,100760.38
2022-12-20T14:25:53.195Z,100762.44
2022-12-20T14:28:31.461Z,100763.53
2022-12-20T14:31:03.477Z,100767.13
2022-12-20T14:33:36.663Z,100760.47
2022-12-20T14:36:19.091Z,100757.53
2022-12-20T14:38:49.319Z,100764.44
2022-12-20T14:41:31.999Z,100767.16
2022-12-20T14:44:04.124Z,100769.72
2022-12-20T14:46:35.148Z,100770.72
2022-12-20T14:49:09.084Z,100784.09
2022-12-20T14:51:37.239Z,100788.25
2022-12-20T14:54:05.661Z,100783.09
2022-12-20T14:56:34.021Z,100777.03
2022-12-20T14:59:17.967Z,100772.06
2022-12-20T15:01:47.577Z,100758.31
2022-12-20T15:04:31.322Z,100765.81
2022-12-20T15:06:59.972Z,100753.94
2022-12-20T15:09:28.904Z,100758.34
2022-12-20T15:11:58.385Z,100748.78
2022-12-20T15:14:36.589Z,100753.56
2022-12-20T15:17:31.902Z,100766.09
2022-12-20T15:20:00.945Z,100762.38
2022-12-20T15:22:31.715Z,100765.91
2022-12-20T15:24:59.727Z,100763.44
2022-12-20T15:27:27.656Z,100771.94
2022-12-20T15:29:55.710Z,100770.31
2022-12-20T15:32:28.228Z,100779.88
2022-12-20T15:34:57.898Z,100777.81
2022-12-20T15:37:25.992Z,100773.25
2022-12-20T15:39:53.961Z,100777.81
2022-12-20T15:42:23.004Z,100780.34
2022-12-20T15:44:51.732Z,100783.25
2022-12-20T15:47:20.201Z,100770.34
2022-12-20T15:49:50.597Z,100782.03
2022-12-20T15:52:23.281Z,100771.41
2022-12-20T15:54:51.786Z,100773.31
2022-12-20T15:57:21.055Z,100779.97
2022-12-20T16:00:00.258Z,100782.91
2022-12-20T16:02:33.383Z,100787.91
2022-12-20T16:05:01.656Z,100794.59
2022-12-20T16:07:31.083Z,100802.50
2022-12-20T16:09:59.096Z,100809.59
2022-12-20T16:12:32.320Z,100805.41
2022-12-20T16:15:00.332Z,100813.72
2022-12-20T16:17:28.384Z,100812.91
2022-12-20T16:19:56.809Z,100818.75
2022-12-20T16:22:26.326Z,100813.31
2022-12-20T16:24:55.992Z,100819.06
2022-12-20T16:27:24.269Z,100823.44
2022-12-20T16:29:52.316Z,100826.34
2022-12-20T16:32:22.533Z,100826.53
2022-12-20T16:34:51.690Z,100848.16
2022-12-20T16:37:19.909Z,100831.69
2022-12-20T16:39:48.806Z,100837.28
2022-12-20T16:42:22.280Z,100838.09
2022-12-20T16:44:53.514Z,100832.66
2022-12-20T16:47:21.729Z,100829.72
2022-12-20T16:49:53.235Z,100836.75
2022-12-20T16:52:23.255Z,100836.16
2022-12-20T16:54:51.682Z,100832.56
2022-12-20T16:57:22.016Z,100834.84
2022-12-20T16:59:50.165Z,100830.69
2022-12-20T17:02:25.556Z,100830.03
2022-12-20T17:04:53.729Z,100830.00
2022-12-20T17:07:22.593Z,100834.78
2022-12-20T17:12:38.010Z,100834.13
2022-12-20T17:15:06.955Z,100846.72
2022-12-20T17:17:35.068Z,100849.84
2022-12-20T17:20:03.345Z,100854.16
2022-12-20T17:22:31.493Z,100854.75
2022-12-20T17:24:59.649Z,100844.34
2022-12-20T17:27:27.623Z,100839.38
2022-12-20T17:29:57.007Z,100844.38
2022-12-20T17:32:26.348Z,100847.69
2022-12-20T17:34:55.326Z,100858.41
2022-12-20T17:37:24.635Z,100861.69
2022-12-20T17:39:52.787Z,100865.66
2022-12-20T17:42:23.233Z,100869.75
2022-12-20T17:44:56.480Z,100855.34
2022-12-20T17:47:24.405Z,100856.78
2022-12-20T17:49:53.402Z,100856.53
2022-12-20T17:52:21.724Z,100858.59
2022-12-20T17:54:49.778Z,100856.03
2022-12-20T17:57:17.847Z,100866.00
2022-12-20T17:59:46.311Z,100858.47
2022-12-20T18:02:24.324Z,100870.69
2022-12-20T18:04:52.874Z,100865.03
2022-12-20T18:07:20.917Z,100866.06
2022-12-20T18:09:49.574Z,100865.03
2022-12-20T18:12:17.987Z,100865.69
2022-12-20T18:14:46.038Z,100873.38
2022-12-20T18:17:14.345Z,100871.06
2022-12-20T18:19:45.605Z,100869.22
2022-12-20T18:22:14.158Z,100878.78
2022-12-20T18:24:42.415Z,100869.66
2022-12-20T18:27:10.448Z,100866.38
2022-12-20T18:29:38.622Z,100864.72
2022-12-20T18:32:06.922Z,100865.16
2022-12-20T18:34:35.071Z,100870.41
2022-12-20T18:37:05.693Z,100852.75
2022-12-20T18:39:34.219Z,100859.63
2022-12-20T18:42:02.344Z,100866.94
2022-12-20T18:44:35.772Z,100864.88
2022-12-20T18:47:04.857Z,100869.47
2022-12-20T18:49:33.193Z,100872.78
2022-12-20T18:52:01.208Z,100868.84
2022-12-20T18:54:33.522Z,100866.63
2022-12-20T18:57:05.871Z,100871.63
2022-12-20T18:59:35.253Z,100871.41
2022-12-20T19:02:03.510Z,100868.78
2022-12-20T19:04:32.883Z,100886.59
2022-12-20T19:07:01.090Z,100876.19
2022-12-20T19:09:30.632Z,100886.59
2022-12-20T19:11:59.031Z,100882.47
2022-12-20T19:14:27.342Z,100890.56
2022-12-20T19:16:55.618Z,100881.84
2022-12-20T19:19:23.789Z,100886.19
2022-12-20T19:21:52.076Z,100898.66
2022-12-20T19:24:20.161Z,100892.19
2022-12-20T19:26:49.876Z,100886.59
2022-12-20T19:29:18.097Z,100887.81
2022-12-20T19:31:46.238Z,100885.13
2022-12-20T19:34:15.180Z,100898.78
2022-12-20T19:36:45.021Z,100897.31
2022-12-20T19:39:20.083Z,100901.06
2022-12-20T19:44:40.683Z,100903.94
2022-12-20T19:47:08.581Z,100897.13
2022-12-20T19:49:36.958Z,100897.31
2022-12-20T19:52:06.126Z,100902.28
2022-12-20T19:54:35.160Z,100896.94
2022-12-20T19:57:04.783Z,100898.53
2022-12-20T19:59:33.161Z,100900.81
2022-12-20T20:02:01.619Z,100910.56
2022-12-20T20:04:31.261Z,100909.47
2022-12-20T20:06:59.291Z,100918.44
2022-12-20T20:09:27.471Z,100911.72
2022-12-20T20:11:55.488Z,100917.97
2022-12-20T20:14:25.049Z,100920.00
2022-12-20T20:16:53.239Z,100916.47
2022-12-20T20:19:21.544Z,100918.78
2022-12-20T20:21:49.880Z,100919.44
2022-12-20T20:24:18.006Z,100923.19
2022-12-20T20:26:46.081Z,100925.66
2022-12-20T20:29:14.247Z,100924.25
2022-12-20T20:31:43.706Z,100923.09
2022-12-20T20:34:12.343Z,100925.16
2022-12-20T20:36:40.388Z,100923.31
2022-12-20T20:39:08.535Z,100923.47
2022-12-20T20:41:36.563Z,100916.22
2022-12-20T20:44:04.775Z,100924.53
2022-12-20T20:46:32.936Z,100928.88
2022-12-20T20:49:02.363Z,100929.97
2022-12-20T20:51:30.488Z,100933.28
2022-12-20T20:53:58.655Z,100940.06
2022-12-20T20:56:26.861Z,100936.72
2022-12-20T20:59:02.630Z,100942.38
2022-12-20T21:01:34.126Z,100938.56
2022-12-20T21:04:04.163Z,100933.41
2022-12-20T21:06:40.425Z,100950.78
2022-12-20T21:09:09.699Z,100944.31
2022-12-20T21:11:37.998Z,100947.63
2022-12-20T21:14:06.314Z,100944.31
2022-12-20T21:16:34.538Z,100936.38
2022-12-20T21:19:04.017Z,100949.75
2022-12-20T21:21:32.042Z,100938.91
2022-12-20T21:24:00.178Z,100934.53
2022-12-20T21:26:28.190Z,100933.41
2022-12-20T21:28:59.761Z,100946.34
2022-12-20T21:31:28.665Z,100944.88
2022-12-20T21:33:57.276Z,100947.56
2022-12-20T21:36:27.124Z,100945.44
2022-12-20T21:38:56.919Z,100953.78
2022-12-20T21:41:26.585Z,100956.03
2022-12-20T21:43:56.604Z,100953.13
2022-12-20T21:46:24.827Z,100962.91
2022-12-20T21:48:52.883Z,100958.25
2022-12-20T21:51:23.459Z,100950.16
2022-12-20T21:53:54.323Z,100959.28
2022-12-20T21:56:23.874Z,100959.69
2022-12-20T21:58:52.247Z,100953.63
2022-12-20T22:01:22.255Z,100965.06
2022-12-20T22:03:52.238Z,100962.56
2022-12-20T22:06:20.641Z,100959.84
2022-12-20T22:08:48.799Z,100961.06
2022-12-20T22:11:19.553Z,100956.53
2022-12-20T22:13:48.241Z,100958.56
2022-12-20T22:16:17.779Z,100956.53
2022-12-20T22:18:49.839Z,100955.22
2022-12-20T22:21:18.695Z,100954.00
2022-12-20T22:23:46.986Z,100950.28
2022-12-20T22:26:17.197Z,100947.41
2022-12-20T22:28:48.361Z,100944.06
2022-12-20T22:31:16.218Z,100946.56
2022-12-20T22:33:44.946Z,100944.88
2022-12-20T22:36:15.024Z,100949.66
2022-12-20T22:38:44.741Z,100952.16
2022-12-20T22:41:14.970Z,100953.19
2022-12-20T22:43:44.565Z,100957.75
2022-12-20T22:49:01.420Z,100951.31
2022-12-20T22:51:31.056Z,100948.63
2022-12-20T22:54:00.111Z,100951.03
2022-12-20T22:56:28.120Z,100955.34
2022-12-20T22:58:57.059Z,100956.53
2022-12-20T23:01:26.515Z,100953.19
2022-12-20T23:03:54.681Z,100939.91
2022-12-20T23:06:23.071Z,100944.81
2022-12-20T23:08:51.057Z,100945.38
2022-12-20T23:11:39.438Z,100943.25
2022-12-20T23:14:29.057Z,100940.47
2022-12-20T23:17:00.064Z,100925.97
2022-12-20T23:19:28.499Z,100940.09
2022-12-20T23:22:14.303Z,100936.75
2022-12-20T23:24:42.277Z,100934.69
2022-12-20T23:27:10.196Z,100943.81
2022-12-20T23:29:38.473Z,100930.34
2022-12-20T23:32:08.786Z,100926.44
2022-12-20T23:34:36.929Z,100932.66
2022-12-20T23:37:04.851Z,100924.41
2022-12-20T23:39:32.779Z,100922.91
2022-12-20T23:42:00.843Z,100929.31
2022-12-20T23:44:28.846Z,100927.66
2022-12-20T23:46:56.737Z,100922.25
2022-12-20T23:49:26.170Z,100932.38
2022-12-20T23:51:54.230Z,100929.13
2022-12-20T23:54:22.420Z,100930.13
2022-12-20T23:56:51.053Z,100934.69
2022-12-20T23:59:19.022Z,100932.00
